sensor_id;sensor_type;location;lat;lon;timestamp;pressure;altitude;pressure_sealevel;temperature;humidity
10646;BME280;5371;49.782;9.932;2022-08-20T00:01:36;99390.16;;;20.80;75.08
10646;BME280;5371;49.782;9.932;2022-08-20T00:04:04;99381.03;;;20.82;75.15
10646;BME280;5371;49.782;9.932;2022-08-20T00:06:32;99383.34;;;20.85;75.10
10646;BME280;5371;49.782;9.932;2022-08-20T00:09:00;99379.22;;;20.83;75.11
10646;BME280;5371;49.782;9.932;2022-08-20T00:11:28;99372.25;;;20.82;75.36
10646;BME280;5371;49.782;9.932;2022-08-20T00:14:02;99372.25;;;20.82;75.63
10646;BME280;5371;49.782;9.932;2022-08-20T00:16:32;99374.22;;;20.80;75.94
10646;BME280;5371;49.782;9.932;2022-08-20T00:19:09;99375.88;;;20.73;76.51
10646;BME280;5371;49.782;9.932;2022-08-20T00:21:38;99384.16;;;20.70;76.91
10646;BME280;5371;49.782;9.932;2022-08-20T00:24:08;99388.97;;;20.66;76.97
10646;BME280;5371;49.782;9.932;2022-08-20T00:26:38;99380.47;;;20.63;77.11
10646;BME280;5371;49.782;9.932;2022-08-20T00:29:23;99385.13;;;20.61;77.47
10646;BME280;5371;49.782;9.932;2022-08-20T00:31:54;99389.25;;;20.55;77.25
10646;BME280;5371;49.782;9.932;2022-08-20T00:34:22;99387.91;;;20.51;77.45
10646;BME280;5371;49.782;9.932;2022-08-20T00:36:50;99391.88;;;20.47;77.72
10646;BME280;5371;49.782;9.932;2022-08-20T00:39:17;99396.50;;;20.45;78.20
10646;BME280;5371;49.782;9.932;2022-08-20T00:41:45;99396.97;;;20.40;78.51
10646;BME280;5371;49.782;9.932;2022-08-20T00:44:14;99399.28;;;20.35;78.59
10646;BME280;5371;49.782;9.932;2022-08-20T00:46:46;99396.25;;;20.30;78.87
10646;BME280;5371;49.782;9.932;2022-08-20T00:49:16;99399.91;;;20.29;78.49
10646;BME280;5371;49.782;9.932;2022-08-20T00:51:52;99397.25;;;20.29;78.24
10646;BME280;5371;49.782;9.932;2022-08-20T00:54:25;99402.34;;;20.23;78.72
10646;BME280;5371;49.782;9.932;2022-08-20T00:57:01;99399.88;;;20.21;78.15
10646;BME280;5371;49.782;9.932;2022-08-20T00:59:34;99399.88;;;20.21;78.06
10646;BME280;5371;49.782;9.932;2022-08-20T01:02:13;99404.13;;;20.14;77.59
10646;BME280;5371;49.782;9.932;2022-08-20T01:04:42;99407.25;;;20.09;77.87
10646;BME280;5371;49.782;9.932;2022-08-20T01:07:18;99414.00;;;20.04;77.98
10646;BME280;5371;49.782;9.932;2022-08-20T01:09:46;99417.13;;;19.99;77.13
10646;BME280;5371;49.782;9.932;2022-08-20T01:12:15;99422.59;;;19.98;76.56
10646;BME280;5371;49.782;9.932;2022-08-20T01:14:44;99419.09;;;19.97;76.62
10646;BME280;5371;49.782;9.932;2022-08-20T01:17:18;99422.75;;;19.96;76.39
10646;BME280;5371;49.782;9.932;2022-08-20T01:19:54;99430.56;;;19.98;76.62
10646;BME280;5371;49.782;9.932;2022-08-20T01:22:28;99424.09;;;20.00;78.54
10646;BME280;5371;49.782;9.932;2022-08-20T01:25:21;99429.41;;;20.00;78.40
10646;BME280;5371;49.782;9.932;2022-08-20T01:27:53;99433.06;;;19.99;77.85
10646;BME280;5371;49.782;9.932;2022-08-20T01:30:23;99439.34;;;19.98;77.69
10646;BME280;5371;49.782;9.932;2022-08-20T01:32:54;99433.34;;;20.22;74.27
10646;BME280;5371;49.782;9.932;2022-08-20T01:35:23;99430.34;;;20.17;73.94
10646;BME280;5371;49.782;9.932;2022-08-20T01:37:51;99436.78;;;20.14;72.00
10646;BME280;5371;49.782;9.932;2022-08-20T01:40:26;99439.59;;;20.13;72.16
10646;BME280;5371;49.782;9.932;2022-08-20T01:43:01;99448.03;;;20.08;72.04
10646;BME280;5371;49.782;9.932;2022-08-20T01:45:35;99448.19;;;20.07;72.30
10646;BME280;5371;49.782;9.932;2022-08-20T01:48:06;99453.63;;;20.05;72.37
10646;BME280;5371;49.782;9.932;2022-08-20T01:50:36;99446.59;;;19.96;72.23
10646;BME280;5371;49.782;9.932;2022-08-20T01:53:11;99442.00;;;19.98;72.66
10646;BME280;5371;49.782;9.932;2022-08-20T01:55:45;99441.16;;;19.98;72.73
10646;BME280;5371;49.782;9.932;2022-08-20T01:58:17;99446.47;;;19.98;72.81
10646;BME280;5371;49.782;9.932;2022-08-20T02:00:47;99445.94;;;19.94;72.76
10646;BME280;5371;49.782;9.932;2022-08-20T02:03:14;99445.28;;;19.92;72.35
10646;BME280;5371;49.782;9.932;2022-08-20T02:05:45;99445.72;;;19.88;72.14
10646;BME280;5371;49.782;9.932;2022-08-20T02:08:12;99437.09;;;19.86;72.13
10646;BME280;5371;49.782;9.932;2022-08-20T02:10:41;99439.38;;;19.80;71.60
10646;BME280;5371;49.782;9.932;2022-08-20T02:13:16;99438.19;;;19.75;71.05
10646;BME280;5371;49.782;9.932;2022-08-20T02:15:45;99443.66;;;19.73;70.21
10646;BME280;5371;49.782;9.932;2022-08-20T02:18:14;99447.91;;;19.66;70.04
10646;BME280;5371;49.782;9.932;2022-08-20T02:20:45;99446.53;;;19.62;69.49
10646;BME280;5371;49.782;9.932;2022-08-20T02:23:13;99442.91;;;19.63;69.56
10646;BME280;5371;49.782;9.932;2022-08-20T02:25:45;99444.56;;;19.64;69.46
10646;BME280;5371;49.782;9.932;2022-08-20T02:28:34;99443.31;;;19.76;68.27
10646;BME280;5371;49.782;9.932;2022-08-20T02:31:05;99447.28;;;19.72;68.17
10646;BME280;5371;49.782;9.932;2022-08-20T02:33:34;99447.28;;;19.72;68.19
10646;BME280;5371;49.782;9.932;2022-08-20T02:36:07;99450.22;;;19.69;68.25
10646;BME280;5371;49.782;9.932;2022-08-20T02:38:38;99440.59;;;19.68;68.49
10646;BME280;5371;49.782;9.932;2022-08-20T02:41:07;99444.41;;;19.66;68.07
10646;BME280;5371;49.782;9.932;2022-08-20T02:43:38;99445.25;;;19.66;68.14
10646;BME280;5371;49.782;9.932;2022-08-20T02:46:06;99441.91;;;19.64;67.84
10646;BME280;5371;49.782;9.932;2022-08-20T02:48:37;99436.91;;;19.61;67.74
10646;BME280;5371;49.782;9.932;2022-08-20T02:51:07;99444.31;;;19.58;67.76
10646;BME280;5371;49.782;9.932;2022-08-20T02:53:39;99440.31;;;19.54;68.20
10646;BME280;5371;49.782;9.932;2022-08-20T02:56:08;99451.06;;;19.52;67.69
10646;BME280;5371;49.782;9.932;2022-08-20T02:58:38;99443.81;;;19.54;67.33
10646;BME280;5371;49.782;9.932;2022-08-20T03:01:14;99444.16;;;19.59;67.10
10646;BME280;5371;49.782;9.932;2022-08-20T03:03:42;99455.47;;;19.61;66.76
10646;BME280;5371;49.782;9.932;2022-08-20T03:06:12;99452.88;;;19.69;66.16
10646;BME280;5371;49.782;9.932;2022-08-20T03:08:41;99450.69;;;19.65;66.06
10646;BME280;5371;49.782;9.932;2022-08-20T03:11:12;99450.06;;;19.71;65.97
10646;BME280;5371;49.782;9.932;2022-08-20T03:13:41;99454.84;;;19.67;65.85
10646;BME280;5371;49.782;9.932;2022-08-20T03:16:09;99450.28;;;19.77;65.44
10646;BME280;5371;49.782;9.932;2022-08-20T03:18:41;99449.31;;;19.78;65.15
10646;BME280;5371;49.782;9.932;2022-08-20T03:21:12;99449.75;;;19.92;64.60
10646;BME280;5371;49.782;9.932;2022-08-20T03:23:48;99459.31;;;19.85;64.75
10646;BME280;5371;49.782;9.932;2022-08-20T03:26:19;99453.31;;;19.83;64.78
10646;BME280;5371;49.782;9.932;2022-08-20T03:28:55;99449.00;;;19.82;65.00
10646;BME280;5371;49.782;9.932;2022-08-20T03:31:23;99452.16;;;19.85;64.55
10646;BME280;5371;49.782;9.932;2022-08-20T03:33:51;99453.31;;;19.83;64.80
10646;BME280;5371;49.782;9.932;2022-08-20T03:36:20;99456.34;;;19.88;64.77
10646;BME280;5371;49.782;9.932;2022-08-20T03:38:48;99460.44;;;19.82;64.99
10646;BME280;5371;49.782;9.932;2022-08-20T03:41:16;99450.44;;;19.76;65.22
10646;BME280;5371;49.782;9.932;2022-08-20T03:43:45;99455.59;;;19.77;65.02
10646;BME280;5371;49.782;9.932;2022-08-20T03:46:15;99454.31;;;19.82;64.79
10646;BME280;5371;49.782;9.932;2022-08-20T03:48:43;99462.25;;;19.82;65.13
10646;BME280;5371;49.782;9.932;2022-08-20T03:51:12;99459.22;;;19.76;64.94
10646;BME280;5371;49.782;9.932;2022-08-20T03:53:41;99463.41;;;19.79;65.08
10646;BME280;5371;49.782;9.932;2022-08-20T03:56:12;99466.88;;;19.79;64.98
10646;BME280;5371;49.782;9.932;2022-08-20T03:58:42;99468.69;;;19.79;65.31
10646;BME280;5371;49.782;9.932;2022-08-20T04:01:17;99470.22;;;19.82;65.15
10646;BME280;5371;49.782;9.932;2022-08-20T04:03:47;99465.53;;;19.75;65.18
10646;BME280;5371;49.782;9.932;2022-08-20T04:06:15;99470.00;;;19.75;65.33
10646;BME280;5371;49.782;9.932;2022-08-20T04:08:43;99462.88;;;19.75;65.34
10646;BME280;5371;49.782;9.932;2022-08-20T04:11:13;99462.56;;;19.78;65.19
10646;BME280;5371;49.782;9.932;2022-08-20T04:13:43;99463.41;;;19.79;65.25
10646;BME280;5371;49.782;9.932;2022-08-20T04:16:19;99465.53;;;19.75;65.34
10646;BME280;5371;49.782;9.932;2022-08-20T04:18:53;99463.53;;;19.77;65.44
10646;BME280;5371;49.782;9.932;2022-08-20T04:21:21;99466.53;;;19.74;65.31
10646;BME280;5371;49.782;9.932;2022-08-20T04:23:51;99465.84;;;19.72;65.45
10646;BME280;5371;49.782;9.932;2022-08-20T04:26:19;99470.66;;;19.77;65.43
10646;BME280;5371;49.782;9.932;2022-08-20T04:28:48;99480.75;;;19.73;65.44
10646;BME280;5371;49.782;9.932;2022-08-20T04:31:34;99482.72;;;19.71;65.51
10646;BME280;5371;49.782;9.932;2022-08-20T04:34:04;99479.25;;;19.71;65.57
10646;BME280;5371;49.782;9.932;2022-08-20T04:36:34;99482.25;;;19.76;65.75
10646;BME280;5371;49.782;9.932;2022-08-20T04:39:16;99487.03;;;19.72;65.62
10646;BME280;5371;49.782;9.932;2022-08-20T04:41:49;99490.31;;;19.66;65.76
10646;BME280;5371;49.782;9.932;2022-08-20T04:44:17;99490.06;;;19.60;66.17
10646;BME280;5371;49.782;9.932;2022-08-20T04:46:49;99494.69;;;19.58;66.32
10646;BME280;5371;49.782;9.932;2022-08-20T04:49:18;99504.47;;;19.57;66.48
10646;BME280;5371;49.782;9.932;2022-08-20T04:51:51;99495.00;;;19.55;66.33
10646;BME280;5371;49.782;9.932;2022-08-20T04:54:19;99498.34;;;19.57;66.52
10646;BME280;5371;49.782;9.932;2022-08-20T04:56:51;99497.88;;;19.61;66.27
10646;BME280;5371;49.782;9.932;2022-08-20T04:59:18;99496.91;;;19.62;66.41
10646;BME280;5371;49.782;9.932;2022-08-20T05:01:49;99501.91;;;19.65;66.32
10646;BME280;5371;49.782;9.932;2022-08-20T05:04:20;99507.88;;;19.67;66.48
10646;BME280;5371;49.782;9.932;2022-08-20T05:06:47;99508.41;;;19.71;66.40
10646;BME280;5371;49.782;9.932;2022-08-20T05:09:18;99512.56;;;19.73;66.24
10646;BME280;5371;49.782;9.932;2022-08-20T05:11:46;99516.44;;;19.79;66.24
10646;BME280;5371;49.782;9.932;2022-08-20T05:14:17;99515.00;;;19.85;66.08
10646;BME280;5371;49.782;9.932;2022-08-20T05:16:44;99519.16;;;19.87;66.16
10646;BME280;5371;49.782;9.932;2022-08-20T05:19:14;99515.91;;;19.93;66.06
10646;BME280;5371;49.782;9.932;2022-08-20T05:21:42;99516.41;;;19.97;65.83
10646;BME280;5371;49.782;9.932;2022-08-20T05:24:12;99524.13;;;20.08;65.65
10646;BME280;5371;49.782;9.932;2022-08-20T05:26:41;99517.00;;;20.08;65.77
10646;BME280;5371;49.782;9.932;2022-08-20T05:29:08;99525.78;;;20.09;65.83
10646;BME280;5371;49.782;9.932;2022-08-20T05:31:36;99529.13;;;20.11;65.89
10646;BME280;5371;49.782;9.932;2022-08-20T05:34:05;99525.16;;;20.15;66.07
10646;BME280;5371;49.782;9.932;2022-08-20T05:36:39;99529.69;;;20.23;65.68
10646;BME280;5371;49.782;9.932;2022-08-20T05:39:11;99535.47;;;20.18;65.95
10646;BME280;5371;49.782;9.932;2022-08-20T05:41:40;99538.13;;;20.18;66.16
10646;BME280;5371;49.782;9.932;2022-08-20T05:44:10;99533.34;;;20.22;66.12
10646;BME280;5371;49.782;9.932;2022-08-20T05:46:39;99535.84;;;20.23;66.19
10646;BME280;5371;49.782;9.932;2022-08-20T05:49:09;99534.69;;;20.26;66.14
10646;BME280;5371;49.782;9.932;2022-08-20T05:51:42;99537.22;;;20.27;66.21
10646;BME280;5371;49.782;9.932;2022-08-20T05:54:11;99539.22;;;20.33;66.07
10646;BME280;5371;49.782;9.932;2022-08-20T05:56:41;99549.56;;;20.36;66.03
10646;BME280;5371;49.782;9.932;2022-08-20T05:59:09;99548.00;;;20.51;65.74
10646;BME280;5371;49.782;9.932;2022-08-20T06:01:37;99536.69;;;20.49;65.75
10646;BME280;5371;49.782;9.932;2022-08-20T06:04:05;99545.34;;;20.51;65.98
10646;BME280;5371;49.782;9.932;2022-08-20T06:06:57;99541.41;;;20.56;65.96
10646;BME280;5371;49.782;9.932;2022-08-20T06:09:28;99529.81;;;20.57;66.17
10646;BME280;5371;49.782;9.932;2022-08-20T06:11:56;99536.00;;;20.65;66.02
10646;BME280;5371;49.782;9.932;2022-08-20T06:14:24;99534.81;;;20.68;65.92
10646;BME280;5371;49.782;9.932;2022-08-20T06:16:52;99538.84;;;20.72;65.89
10646;BME280;5371;49.782;9.932;2022-08-20T06:19:22;99532.69;;;20.71;65.85
10646;BME280;5371;49.782;9.932;2022-08-20T06:21:49;99537.84;;;20.73;65.91
10646;BME280;5371;49.782;9.932;2022-08-20T06:24:21;99529.41;;;20.77;65.71
10646;BME280;5371;49.782;9.932;2022-08-20T06:27:00;99526.13;;;20.83;65.56
10646;BME280;5371;49.782;9.932;2022-08-20T06:29:29;99532.31;;;20.92;65.46
10646;BME280;5371;49.782;9.932;2022-08-20T06:31:59;99536.66;;;21.01;65.19
10646;BME280;5371;49.782;9.932;2022-08-20T06:34:28;99526.06;;;21.09;65.01
10646;BME280;5371;49.782;9.932;2022-08-20T06:36:56;99540.22;;;21.18;64.64
10646;BME280;5371;49.782;9.932;2022-08-20T06:39:29;99534.97;;;21.34;64.10
10646;BME280;5371;49.782;9.932;2022-08-20T06:42:00;99540.28;;;21.42;63.97
10646;BME280;5371;49.782;9.932;2022-08-20T06:44:28;99542.47;;;21.47;64.00
10646;BME280;5371;49.782;9.932;2022-08-20T06:46:59;99545.16;;;21.55;63.69
10646;BME280;5371;49.782;9.932;2022-08-20T06:49:29;99551.78;;;21.59;63.56
10646;BME280;5371;49.782;9.932;2022-08-20T06:51:56;99553.16;;;21.71;63.26
10646;BME280;5371;49.782;9.932;2022-08-20T06:54:25;99553.84;;;21.81;63.06
10646;BME280;5371;49.782;9.932;2022-08-20T06:56:55;99548.19;;;21.92;62.91
10646;BME280;5371;49.782;9.932;2022-08-20T06:59:23;99548.84;;;21.86;63.00
10646;BME280;5371;49.782;9.932;2022-08-20T07:01:50;99558.03;;;22.24;61.75
10646;BME280;5371;49.782;9.932;2022-08-20T07:04:21;99558.84;;;22.25;61.91
10646;BME280;5371;49.782;9.932;2022-08-20T07:06:50;99561.69;;;22.23;61.86
10646;BME280;5371;49.782;9.932;2022-08-20T07:09:18;99556.50;;;22.46;61.27
10646;BME280;5371;49.782;9.932;2022-08-20T07:11:46;99561.81;;;22.54;61.08
10646;BME280;5371;49.782;9.932;2022-08-20T07:14:16;99562.81;;;22.53;61.30
10646;BME280;5371;49.782;9.932;2022-08-20T07:16:45;99561.13;;;22.60;61.09
10646;BME280;5371;49.782;9.932;2022-08-20T07:19:12;99558.81;;;22.65;60.81
10646;BME280;5371;49.782;9.932;2022-08-20T07:21:40;99564.94;;;22.74;61.04
10646;BME280;5371;49.782;9.932;2022-08-20T07:24:10;99559.28;;;22.69;61.13
10646;BME280;5371;49.782;9.932;2022-08-20T07:26:37;99564.44;;;22.70;61.21
10646;BME280;5371;49.782;9.932;2022-08-20T07:29:05;99565.44;;;22.77;60.97
10646;BME280;5371;49.782;9.932;2022-08-20T07:31:34;99562.63;;;22.79;61.22
10646;BME280;5371;49.782;9.932;2022-08-20T07:34:18;99558.75;;;22.90;60.90
10646;BME280;5371;49.782;9.932;2022-08-20T07:36:46;99557.41;;;23.02;61.00
10646;BME280;5371;49.782;9.932;2022-08-20T07:39:15;99557.81;;;23.22;60.52
10646;BME280;5371;49.782;9.932;2022-08-20T07:41:43;99569.66;;;23.19;60.63
10646;BME280;5371;49.782;9.932;2022-08-20T07:44:27;99576.03;;;23.41;60.42
10646;BME280;5371;49.782;9.932;2022-08-20T07:46:59;99569.28;;;23.61;59.21
10646;BME280;5371;49.782;9.932;2022-08-20T07:49:26;99571.16;;;23.53;59.81
10646;BME280;5371;49.782;9.932;2022-08-20T07:51:55;99576.22;;;23.39;60.32
10646;BME280;5371;49.782;9.932;2022-08-20T07:54:23;99568.81;;;23.58;59.54
10646;BME280;5371;49.782;9.932;2022-08-20T07:56:52;99581.56;;;23.39;60.61
10646;BME280;5371;49.782;9.932;2022-08-20T07:59:20;99578.53;;;23.42;60.33
10646;BME280;5371;49.782;9.932;2022-08-20T08:01:50;99587.69;;;23.40;60.14
10646;BME280;5371;49.782;9.932;2022-08-20T08:04:19;99578.28;;;23.29;60.95
10646;BME280;5371;49.782;9.932;2022-08-20T08:06:48;99585.25;;;23.30;60.60
10646;BME280;5371;49.782;9.932;2022-08-20T08:09:18;99581.78;;;23.30;61.12
10646;BME280;5371;49.782;9.932;2022-08-20T08:11:47;99587.94;;;23.30;61.04
10646;BME280;5371;49.782;9.932;2022-08-20T08:14:19;99588.69;;;23.47;60.15
10646;BME280;5371;49.782;9.932;2022-08-20T08:16:48;99588.50;;;23.57;59.99
10646;BME280;5371;49.782;9.932;2022-08-20T08:19:21;99581.34;;;23.41;60.40
10646;BME280;5371;49.782;9.932;2022-08-20T08:21:49;99585.56;;;23.35;60.96
10646;BME280;5371;49.782;9.932;2022-08-20T08:24:17;99587.78;;;23.63;60.13
10646;BME280;5371;49.782;9.932;2022-08-20T08:26:52;99595.34;;;23.43;61.00
10646;BME280;5371;49.782;9.932;2022-08-20T08:29:23;99592.84;;;23.41;61.01
10646;BME280;5371;49.782;9.932;2022-08-20T08:31:52;99610.69;;;23.41;60.88
10646;BME280;5371;49.782;9.932;2022-08-20T08:34:20;99604.53;;;23.40;60.92
10646;BME280;5371;49.782;9.932;2022-08-20T08:36:50;99614.59;;;23.30;61.45
10646;BME280;5371;49.782;9.932;2022-08-20T08:39:18;99610.63;;;23.18;62.13
10646;BME280;5371;49.782;9.932;2022-08-20T08:41:49;99617.25;;;23.22;62.14
10646;BME280;5371;49.782;9.932;2022-08-20T08:44:25;99617.44;;;23.29;62.06
10646;BME280;5371;49.782;9.932;2022-08-20T08:46:56;99609.50;;;23.52;61.29
10646;BME280;5371;49.782;9.932;2022-08-20T08:49:28;99620.34;;;23.50;61.36
10646;BME280;5371;49.782;9.932;2022-08-20T08:52:00;99617.41;;;23.68;61.16
10646;BME280;5371;49.782;9.932;2022-08-20T08:54:30;99619.09;;;23.69;61.20
10646;BME280;5371;49.782;9.932;2022-08-20T08:56:59;99618.84;;;23.56;61.87
10646;BME280;5371;49.782;9.932;2022-08-20T08:59:28;99617.69;;;23.81;61.04
10646;BME280;5371;49.782;9.932;2022-08-20T09:01:58;99619.09;;;23.69;60.97
10646;BME280;5371;49.782;9.932;2022-08-20T09:04:31;99624.78;;;23.66;61.03
10646;BME280;5371;49.782;9.932;2022-08-20T09:07:01;99623.84;;;23.81;59.98
10646;BME280;5371;49.782;9.932;2022-08-20T09:09:31;99624.50;;;24.06;59.50
10646;BME280;5371;49.782;9.932;2022-08-20T09:12:03;99617.09;;;24.16;59.09
10646;BME280;5371;49.782;9.932;2022-08-20T09:14:31;99616.63;;;24.13;59.59
10646;BME280;5371;49.782;9.932;2022-08-20T09:16:58;99624.84;;;24.11;59.50
10646;BME280;5371;49.782;9.932;2022-08-20T09:19:27;99624.44;;;24.14;59.96
10646;BME280;5371;49.782;9.932;2022-08-20T09:21:55;99619.84;;;24.31;59.54
10646;BME280;5371;49.782;9.932;2022-08-20T09:24:22;99628.78;;;24.15;60.17
10646;BME280;5371;49.782;9.932;2022-08-20T09:26:49;99616.63;;;23.90;61.03
10646;BME280;5371;49.782;9.932;2022-08-20T09:29:17;99628.06;;;23.76;61.66
10646;BME280;5371;49.782;9.932;2022-08-20T09:31:46;99625.69;;;23.81;62.10
10646;BME280;5371;49.782;9.932;2022-08-20T09:34:17;99629.84;;;23.53;62.86
10646;BME280;5371;49.782;9.932;2022-08-20T09:36:45;99630.19;;;23.49;63.17
10646;BME280;5371;49.782;9.932;2022-08-20T09:39:12;99628.41;;;23.34;64.15
10646;BME280;5371;49.782;9.932;2022-08-20T09:41:40;99618.84;;;23.47;63.45
10646;BME280;5371;49.782;9.932;2022-08-20T09:44:08;99626.84;;;23.47;63.94
10646;BME280;5371;49.782;9.932;2022-08-20T09:46:35;99619.09;;;23.30;64.42
10646;BME280;5371;49.782;9.932;2022-08-20T09:49:03;99623.28;;;23.16;64.88
10646;BME280;5371;49.782;9.932;2022-08-20T09:51:30;99624.66;;;23.12;65.05
10646;BME280;5371;49.782;9.932;2022-08-20T09:53:59;99617.59;;;23.27;64.76
10646;BME280;5371;49.782;9.932;2022-08-20T09:56:28;99618.66;;;23.10;65.28
10646;BME280;5371;49.782;9.932;2022-08-20T09:59:01;99612.94;;;23.29;64.53
10646;BME280;5371;49.782;9.932;2022-08-20T10:01:30;99610.91;;;23.31;64.45
10646;BME280;5371;49.782;9.932;2022-08-20T10:03:59;99619.72;;;23.32;65.63
10646;BME280;5371;49.782;9.932;2022-08-20T10:06:26;99625.91;;;23.32;66.79
10646;BME280;5371;49.782;9.932;2022-08-20T10:08:53;99618.31;;;23.13;66.80
10646;BME280;5371;49.782;9.932;2022-08-20T10:11:22;99617.91;;;23.32;66.76
10646;BME280;5371;49.782;9.932;2022-08-20T10:13:50;99618.53;;;23.42;66.11
10646;BME280;5371;49.782;9.932;2022-08-20T10:16:17;99614.63;;;23.61;65.03
10646;BME280;5371;49.782;9.932;2022-08-20T10:18:44;99611.88;;;24.00;64.02
10646;BME280;5371;49.782;9.932;2022-08-20T10:21:15;99610.50;;;24.50;62.13
10646;BME280;5371;49.782;9.932;2022-08-20T10:23:42;99609.47;;;24.88;60.38
10646;BME280;5371;49.782;9.932;2022-08-20T10:26:11;99603.72;;;25.50;58.24
10646;BME280;5371;49.782;9.932;2022-08-20T10:28:39;99593.44;;;25.18;58.44
10646;BME280;5371;49.782;9.932;2022-08-20T10:31:09;99596.53;;;25.51;57.82
10646;BME280;5371;49.782;9.932;2022-08-20T10:33:38;99593.03;;;25.50;57.82
10646;BME280;5371;49.782;9.932;2022-08-20T10:36:06;99597.09;;;25.46;58.01
10646;BME280;5371;49.782;9.932;2022-08-20T10:38:34;99596.94;;;25.33;57.57
10646;BME280;5371;49.782;9.932;2022-08-20T10:41:01;99593.41;;;25.32;57.17
10646;BME280;5371;49.782;9.932;2022-08-20T10:43:28;99598.03;;;25.39;57.11
10646;BME280;5371;49.782;9.932;2022-08-20T10:45:57;99597.88;;;25.40;56.74
10646;BME280;5371;49.782;9.932;2022-08-20T10:48:24;99593.25;;;25.34;57.32
10646;BME280;5371;49.782;9.932;2022-08-20T10:50:51;99594.94;;;25.06;58.37
10646;BME280;5371;49.782;9.932;2022-08-20T10:53:18;99597.44;;;24.92;58.12
10646;BME280;5371;49.782;9.932;2022-08-20T10:55:45;99588.56;;;25.07;58.24
10646;BME280;5371;49.782;9.932;2022-08-20T10:58:13;99590.03;;;25.24;57.24
10646;BME280;5371;49.782;9.932;2022-08-20T11:00:40;99588.31;;;25.52;55.85
10646;BME280;5371;49.782;9.932;2022-08-20T11:03:08;99585.34;;;25.77;54.98
10646;BME280;5371;49.782;9.932;2022-08-20T11:05:36;99591.84;;;26.10;53.28
10646;BME280;5371;49.782;9.932;2022-08-20T11:08:04;99588.22;;;26.39;52.45
10646;BME280;5371;49.782;9.932;2022-08-20T11:10:34;99583.13;;;26.51;51.42
10646;BME280;5371;49.782;9.932;2022-08-20T11:13:02;99583.44;;;26.62;51.52
10646;BME280;5371;49.782;9.932;2022-08-20T11:15:33;99581.72;;;26.82;50.47
10646;BME280;5371;49.782;9.932;2022-08-20T11:18:01;99574.91;;;27.14;49.38
10646;BME280;5371;49.782;9.932;2022-08-20T11:20:30;99566.94;;;28.15;47.27
10646;BME280;5371;49.782;9.932;2022-08-20T11:22:57;99561.19;;;28.44;45.85
10646;BME280;5371;49.782;9.932;2022-08-20T11:25:26;99564.41;;;28.99;45.11
10646;BME280;5371;49.782;9.932;2022-08-20T11:27:54;99554.94;;;29.41;44.48
10646;BME280;5371;49.782;9.932;2022-08-20T11:30:26;99544.28;;;29.66;43.07
10646;BME280;5371;49.782;9.932;2022-08-20T11:32:54;99555.28;;;29.96;42.83
10646;BME280;5371;49.782;9.932;2022-08-20T11:35:25;99552.16;;;29.61;42.75
10646;BME280;5371;49.782;9.932;2022-08-20T11:37:57;99547.47;;;29.81;42.46
10646;BME280;5371;49.782;9.932;2022-08-20T11:40:27;99554.69;;;30.19;41.39
10646;BME280;5371;49.782;9.932;2022-08-20T11:42:57;99557.00;;;30.65;40.03
10646;BME280;5371;49.782;9.932;2022-08-20T11:45:28;99557.00;;;30.65;39.39
10646;BME280;5371;49.782;9.932;2022-08-20T11:47:57;99560.94;;;29.50;41.44
10646;BME280;5371;49.782;9.932;2022-08-20T11:50:24;99556.88;;;29.72;41.14
10646;BME280;5371;49.782;9.932;2022-08-20T11:52:53;99564.78;;;29.67;41.29
10646;BME280;5371;49.782;9.932;2022-08-20T11:55:23;99567.56;;;28.76;50.38
10646;BME280;5371;49.782;9.932;2022-08-20T11:57:52;99573.13;;;28.02;54.86
10646;BME280;5371;49.782;9.932;2022-08-20T12:00:23;99569.41;;;27.29;59.62
10646;BME280;5371;49.782;9.932;2022-08-20T12:02:51;99573.75;;;26.12;62.90
10646;BME280;5371;49.782;9.932;2022-08-20T12:05:22;99573.56;;;25.42;61.97
10646;BME280;5371;49.782;9.932;2022-08-20T12:07:52;99581.19;;;25.09;64.82
10646;BME280;5371;49.782;9.932;2022-08-20T12:10:24;99580.81;;;24.82;67.09
10646;BME280;5371;49.782;9.932;2022-08-20T12:12:53;99579.19;;;24.44;67.73
10646;BME280;5371;49.782;9.932;2022-08-20T12:15:20;99577.97;;;24.09;73.06
10646;BME280;5371;49.782;9.932;2022-08-20T12:17:51;99570.25;;;23.91;69.16
10646;BME280;5371;49.782;9.932;2022-08-20T12:20:25;99567.38;;;23.39;69.15
10646;BME280;5371;49.782;9.932;2022-08-20T12:22:55;99568.06;;;23.33;71.32
10646;BME280;5371;49.782;9.932;2022-08-20T12:25:26;99563.94;;;23.30;71.91
10646;BME280;5371;49.782;9.932;2022-08-20T12:27:54;99567.06;;;23.34;76.17
10646;BME280;5371;49.782;9.932;2022-08-20T12:30:23;99571.56;;;23.33;76.23
10646;BME280;5371;49.782;9.932;2022-08-20T12:32:52;99561.19;;;23.07;77.63
10646;BME280;5371;49.782;9.932;2022-08-20T12:35:19;99554.63;;;22.79;79.22
10646;BME280;5371;49.782;9.932;2022-08-20T12:37:49;99550.84;;;22.41;79.32
10646;BME280;5371;49.782;9.932;2022-08-20T12:40:22;99552.34;;;22.44;84.60
10646;BME280;5371;49.782;9.932;2022-08-20T12:42:52;99549.19;;;22.48;84.45
10646;BME280;5371;49.782;9.932;2022-08-20T12:45:21;99543.66;;;22.50;84.74
10646;BME280;5371;49.782;9.932;2022-08-20T12:47:58;99533.19;;;22.40;81.97
10646;BME280;5371;49.782;9.932;2022-08-20T12:50:28;99536.00;;;22.63;82.18
10646;BME280;5371;49.782;9.932;2022-08-20T12:52:56;99533.94;;;22.89;79.94
10646;BME280;5371;49.782;9.932;2022-08-20T12:55:23;99543.06;;;23.03;83.58
10646;BME280;5371;49.782;9.932;2022-08-20T12:58:03;99539.31;;;23.20;82.82
10646;BME280;5371;49.782;9.932;2022-08-20T13:00:34;99536.72;;;23.35;83.65
10646;BME280;5371;49.782;9.932;2022-08-20T13:03:03;99540.41;;;23.34;79.52
10646;BME280;5371;49.782;9.932;2022-08-20T13:05:33;99535.69;;;23.44;81.51
10646;BME280;5371;49.782;9.932;2022-08-20T13:08:03;99541.84;;;23.44;77.82
10646;BME280;5371;49.782;9.932;2022-08-20T13:10:37;99531.19;;;23.44;76.66
10646;BME280;5371;49.782;9.932;2022-08-20T13:13:10;99542.09;;;23.66;80.00
10646;BME280;5371;49.782;9.932;2022-08-20T13:15:39;99536.75;;;23.66;79.43
10646;BME280;5371;49.782;9.932;2022-08-20T13:18:08;99529.16;;;23.55;77.09
10646;BME280;5371;49.782;9.932;2022-08-20T13:20:36;99538.94;;;23.85;75.27
10646;BME280;5371;49.782;9.932;2022-08-20T13:23:07;99536.22;;;23.93;76.92
10646;BME280;5371;49.782;9.932;2022-08-20T13:25:37;99541.75;;;24.06;70.63